Time;durP1;ratioP1;P1;durP2;ratioP2;P2;SDS_P1;SDS_P2;PMS_P1;PMS_P2;Temp;Humidity;BMP_temperature;BMP_pressure;BME280_temperature;BME280_humidity;BME280_pressure;Samples;Min_cycle;Max_cycle;Signal;HPM_P1;HPM_P2
2022/01/17 00:01:59;;;;;;;37.67;18.97;;;;;;;3.99;67.65;101399.13;5003882;28;20685;-77
2022/01/17 00:04:24;;;;;;;30.57;16.53;;;;;;;4.01;67.03;101397.72;5002475;28;20177;-77
2022/01/17 00:06:50;;;;;;;34.27;17.20;;;;;;;3.84;68.24;101372.75;5004604;28;20169;-76
2022/01/17 00:09:16;;;;;;;33.30;18.00;;;;;;;4.01;67.82;101400.25;5012327;28;20212;-78
2022/01/17 00:11:44;;;;;;;28.67;16.27;;;;;;;3.73;68.02;101346.00;5017289;28;20240;-77
2022/01/17 00:14:14;;;;;;;31.73;16.80;;;;;;;4.00;67.95;101388.28;5015312;28;20258;-75
2022/01/17 00:16:44;;;;;;;32.40;17.50;;;;;;;4.07;68.02;101389.25;5012696;28;20197;-75
2022/01/17 00:21:48;;;;;;;32.97;16.40;;;;;;;3.96;68.63;101381.00;5010520;28;20190;-78
2022/01/17 00:24:14;;;;;;;29.33;15.90;;;;;;;3.92;68.41;101394.91;5012284;28;20213;-77
2022/01/17 00:26:39;;;;;;;28.87;16.63;;;;;;;3.82;69.15;101386.84;5010411;28;20185;-75
2022/01/17 00:29:05;;;;;;;31.90;17.57;;;;;;;3.67;68.17;101362.94;5000115;28;20173;-78
2022/01/17 00:31:31;;;;;;;30.40;15.93;;;;;;;3.56;67.92;101338.78;5004279;28;20181;-76
2022/01/17 00:33:57;;;;;;;30.43;15.57;;;;;;;3.63;68.08;101381.03;5009101;28;20173;-78
2022/01/17 00:36:23;;;;;;;29.10;16.23;;;;;;;3.61;69.27;101379.91;5009095;28;20177;-77
2022/01/17 00:38:49;;;;;;;26.23;14.00;;;;;;;3.43;68.22;101345.53;5006624;28;20177;-77
2022/01/17 00:41:14;;;;;;;29.73;16.03;;;;;;;3.48;68.52;101357.13;4997759;28;20227;-78
2022/01/17 00:43:40;;;;;;;30.93;15.17;;;;;;;3.62;68.80;101377.59;4997650;28;20209;-78
2022/01/17 00:46:05;;;;;;;30.97;14.67;;;;;;;3.67;67.82;101370.56;4995869;28;20188;-78
2022/01/17 00:48:31;;;;;;;35.40;16.87;;;;;;;3.62;68.58;101369.97;4996244;28;20173;-77
2022/01/17 00:50:57;;;;;;;28.43;14.80;;;;;;;3.29;68.78;101336.09;4994776;28;20188;-77
2022/01/17 00:53:22;;;;;;;27.90;15.27;;;;;;;3.18;69.43;101311.03;4994381;28;20181;-76
2022/01/17 00:55:48;;;;;;;26.50;15.70;;;;;;;3.34;68.79;101334.19;4994234;28;20633;-77
2022/01/17 00:58:13;;;;;;;31.00;16.53;;;;;;;3.39;68.35;101338.22;4993972;28;20173;-77
2022/01/17 01:00:41;;;;;;;25.93;14.40;;;;;;;3.58;68.02;101371.91;4994009;28;20185;-77
2022/01/17 01:03:06;;;;;;;29.43;14.17;;;;;;;3.55;68.31;101361.38;4976334;28;20763;-79
2022/01/17 01:05:32;;;;;;;26.10;13.27;;;;;;;3.30;68.48;101335.38;4994399;28;20217;-76
2022/01/17 01:07:58;;;;;;;21.97;13.77;;;;;;;3.24;68.31;101330.47;4994090;28;20177;-77
2022/01/17 01:10:24;;;;;;;26.57;13.80;;;;;;;3.39;68.77;101353.41;4993880;28;20200;-77
2022/01/17 01:12:51;;;;;;;28.13;14.50;;;;;;;3.32;68.84;101353.34;4993381;28;20755;-79
2022/01/17 01:15:33;;;;;;;25.13;15.13;;;;;;;3.14;68.79;101329.94;4993828;28;20181;-76
2022/01/17 01:18:01;;;;;;;24.47;14.20;;;;;;;3.11;68.58;101338.78;4993632;28;20166;-77
2022/01/17 01:28:30;;;;;;;27.10;14.30;;;;;;;2.95;69.01;101336.75;4993535;28;20636;-77
2022/01/17 01:30:58;;;;;;;28.10;14.80;;;;;;;2.90;69.82;101325.16;4993616;28;20182;-77
2022/01/17 01:33:31;;;;;;;28.50;15.23;;;;;;;2.83;70.16;101330.09;4993453;28;20181;-77
2022/01/17 01:36:05;;;;;;;29.10;15.70;;;;;;;2.80;70.91;101317.03;4993365;28;20172;-77
2022/01/17 01:38:31;;;;;;;26.80;15.67;;;;;;;2.83;70.27;101314.91;4993197;28;20158;-78
2022/01/17 01:40:57;;;;;;;25.60;14.23;;;;;;;2.81;70.24;101313.81;4993264;28;20174;-77
2022/01/17 01:43:22;;;;;;;27.37;16.00;;;;;;;2.76;70.62;101286.97;4993206;28;20216;-77
2022/01/17 01:45:50;;;;;;;28.43;15.63;;;;;;;2.81;70.11;101285.06;4975573;28;20189;-76
2022/01/17 01:48:20;;;;;;;25.53;14.13;;;;;;;2.81;70.58;101295.19;4993302;28;20227;-76
2022/01/17 01:50:46;;;;;;;26.80;14.80;;;;;;;2.75;69.97;101288.59;4993120;28;20181;-77
2022/01/17 01:53:12;;;;;;;26.70;13.90;;;;;;;2.81;69.85;101274.94;4993367;28;20185;-77
2022/01/17 01:55:38;;;;;;;28.27;15.30;;;;;;;2.83;69.99;101270.97;4993008;28;20185;-78
2022/01/17 01:58:04;;;;;;;29.77;15.87;;;;;;;2.27;70.17;101182.81;4993212;28;20262;-78
2022/01/17 02:00:29;;;;;;;29.23;15.93;;;;;;;2.91;69.52;101273.81;4994043;28;20180;-78
2022/01/17 02:02:55;;;;;;;28.03;15.17;;;;;;;2.90;69.74;101272.00;4994318;28;20237;-77
2022/01/17 02:05:21;;;;;;;24.47;14.97;;;;;;;2.94;69.95;101270.75;4993746;28;20685;-78
2022/01/17 02:07:46;;;;;;;26.77;15.20;;;;;;;2.97;69.47;101272.06;4993698;28;20181;-76
2022/01/17 02:10:12;;;;;;;26.90;15.77;;;;;;;2.98;69.09;101271.34;4993490;28;20205;-77
2022/01/17 02:12:38;;;;;;;26.37;14.50;;;;;;;2.96;68.78;101254.13;4993718;28;20731;-77
2022/01/17 02:15:05;;;;;;;26.50;14.70;;;;;;;2.93;68.96;101259.72;4993949;28;20177;-77
2022/01/17 02:17:33;;;;;;;30.57;14.80;;;;;;;2.60;68.64;101212.31;4994200;28;20170;-77
2022/01/17 02:20:09;;;;;;;25.73;14.37;;;;;;;2.71;68.90;101235.78;4994880;28;20280;-77
2022/01/17 02:22:35;;;;;;;25.17;14.73;;;;;;;2.86;69.45;101256.19;4978924;28;20207;-77
2022/01/17 02:25:01;;;;;;;28.17;15.27;;;;;;;2.80;68.41;101238.56;4994137;28;20561;-77
2022/01/17 02:27:27;;;;;;;27.70;15.97;;;;;;;2.62;68.41;101211.81;4976282;28;20178;-77
2022/01/17 02:29:53;;;;;;;29.23;15.20;;;;;;;2.61;68.54;101202.38;4993716;28;20244;-78
2022/01/17 02:32:18;;;;;;;27.07;14.83;;;;;;;2.66;68.89;101218.19;4992748;28;20244;-77
2022/01/17 02:34:44;;;;;;;29.70;15.27;;;;;;;2.59;69.00;101220.63;4992947;28;20537;-77
2022/01/17 02:37:11;;;;;;;29.30;16.03;;;;;;;2.83;68.73;101243.13;4992465;28;20288;-77
2022/01/17 02:39:37;;;;;;;27.73;16.27;;;;;;;2.83;68.76;101246.56;4992604;28;20377;-78
2022/01/17 02:42:04;;;;;;;27.50;15.07;;;;;;;2.56;67.94;101195.81;4992339;28;20212;-77
2022/01/17 02:44:30;;;;;;;29.23;15.30;;;;;;;2.91;68.22;101247.59;4992404;28;20220;-77
2022/01/17 02:46:55;;;;;;;26.97;15.13;;;;;;;2.93;68.02;101257.19;4992720;28;20174;-77
2022/01/17 02:49:21;;;;;;;25.93;14.67;;;;;;;2.68;67.69;101202.50;4993886;28;20638;-77
2022/01/17 02:51:48;;;;;;;25.57;14.43;;;;;;;2.95;67.29;101254.84;4994130;28;20269;-77
2022/01/17 02:54:14;;;;;;;27.50;14.07;;;;;;;2.85;67.29;101244.25;4976350;28;20189;-78
2022/01/17 02:56:41;;;;;;;23.17;12.63;;;;;;;2.75;67.49;101239.63;4993912;28;20166;-77
2022/01/17 02:59:07;;;;;;;23.67;13.27;;;;;;;2.66;67.86;101238.41;4993824;28;20177;-77
2022/01/17 03:01:32;;;;;;;27.13;14.30;;;;;;;2.59;67.39;101231.66;4992713;28;20177;-77
2022/01/17 03:03:59;;;;;;;26.53;13.83;;;;;;;2.57;68.28;101240.66;4992606;28;20291;-79
2022/01/17 03:06:26;;;;;;;32.77;14.93;;;;;;;2.27;68.20;101210.63;4992614;28;20173;-77
2022/01/17 03:08:51;;;;;;;29.97;14.47;;;;;;;2.45;68.63;101232.34;4992277;28;20173;-79
2022/01/17 03:11:23;;;;;;;25.57;14.50;;;;;;;2.39;68.43;101234.06;4992376;28;20271;-76
2022/01/17 03:13:50;;;;;;;27.87;14.13;;;;;;;2.39;68.81;101234.06;4992553;28;20165;-78
2022/01/17 03:16:18;;;;;;;27.43;13.63;;;;;;;2.35;68.71;101229.31;4991958;28;20184;-77
2022/01/17 03:18:52;;;;;;;23.73;13.90;;;;;;;2.36;68.07;101215.97;4992056;28;20188;-77
2022/01/17 03:21:19;;;;;;;24.20;13.03;;;;;;;2.38;67.96;101201.91;4991579;28;20165;-76
2022/01/17 03:23:47;;;;;;;25.40;14.47;;;;;;;2.34;67.91;101212.34;4991681;28;20205;-76
2022/01/17 03:26:13;;;;;;;28.00;15.90;;;;;;;2.31;68.11;101163.88;4991617;28;20264;-78
2022/01/17 03:28:39;;;;;;;28.37;13.37;;;;;;;2.51;67.50;101187.63;4991909;28;20201;-76
2022/01/17 03:31:06;;;;;;;20.73;12.13;;;;;;;2.41;67.80;101184.59;4991621;28;20173;-77
2022/01/17 03:33:32;;;;;;;24.10;12.33;;;;;;;2.50;67.70;101179.84;4996243;28;20173;-76
2022/01/17 03:35:57;;;;;;;23.23;12.80;;;;;;;2.45;67.82;101173.28;4974351;28;20267;-76
2022/01/17 03:38:27;;;;;;;24.30;12.70;;;;;;;2.54;67.75;101192.19;4995572;28;20185;-78
2022/01/17 03:40:53;;;;;;;23.70;11.97;;;;;;;1.84;67.43;101055.84;4993234;28;20445;-77
2022/01/17 03:43:20;;;;;;;23.07;12.57;;;;;;;2.64;67.59;101174.94;4991754;28;20380;-78
2022/01/17 03:45:46;;;;;;;22.63;12.47;;;;;;;2.61;67.31;101177.06;4995650;28;20177;-77
2022/01/17 03:48:13;;;;;;;21.10;12.23;;;;;;;2.68;66.55;101166.13;4978074;28;20751;-76
2022/01/17 03:50:38;;;;;;;24.53;12.03;;;;;;;2.45;66.79;101131.16;4995426;28;20189;-76
2022/01/17 03:53:04;;;;;;;20.23;12.20;;;;;;;2.69;66.69;101173.03;4995518;28;20181;-77
2022/01/17 03:55:32;;;;;;;24.00;13.27;;;;;;;2.73;66.90;101181.19;4995686;28;20182;-76
2022/01/17 03:57:58;;;;;;;22.63;13.10;;;;;;;2.69;66.18;101175.56;4994908;28;20728;-77
2022/01/17 04:00:34;;;;;;;21.93;12.23;;;;;;;2.77;66.45;101174.91;4995162;28;20181;-76
2022/01/17 04:03:00;;;;;;;25.13;12.97;;;;;;;2.81;66.46;101179.69;4995525;28;20204;-78
2022/01/17 04:05:26;;;;;;;23.40;12.47;;;;;;;2.62;65.51;101145.13;4995314;28;20177;-77
2022/01/17 04:07:51;;;;;;;21.03;12.47;;;;;;;2.66;65.85;101152.38;4995171;28;20549;-77
2022/01/17 04:10:17;;;;;;;19.90;12.53;;;;;;;2.84;65.86;101176.63;4995366;28;20196;-78
2022/01/17 04:12:44;;;;;;;22.40;13.50;;;;;;;2.73;66.08;101175.22;4995408;28;20252;-77
2022/01/17 04:15:11;;;;;;;24.57;14.03;;;;;;;2.68;66.09;101168.66;4995032;28;20636;-76
2022/01/17 04:17:39;;;;;;;22.77;12.67;;;;;;;2.66;65.65;101182.75;4994940;28;20657;-76
2022/01/17 04:20:09;;;;;;;27.13;13.77;;;;;;;2.55;66.07;101171.22;4995261;28;20181;-77
2022/01/17 04:22:41;;;;;;;22.93;13.43;;;;;;;2.27;66.54;101137.31;4976084;28;20212;-77
2022/01/17 04:25:07;;;;;;;25.73;13.77;;;;;;;2.41;66.84;101173.59;4994224;28;20197;-76
2022/01/17 04:27:34;;;;;;;25.37;13.63;;;;;;;2.31;67.02;101166.41;4994985;28;20182;-77
2022/01/17 04:29:59;;;;;;;27.27;13.80;;;;;;;2.32;67.29;101160.66;4994921;28;20537;-77
2022/01/17 04:32:26;;;;;;;25.20;13.30;;;;;;;2.11;67.60;101125.88;4994643;28;20188;-76
2022/01/17 04:34:51;;;;;;;31.07;14.50;;;;;;;2.29;67.69;101155.19;4994902;28;20170;-77
2022/01/17 04:37:17;;;;;;;25.87;14.63;;;;;;;2.25;67.55;101156.41;4995062;28;20184;-77
2022/01/17 04:39:43;;;;;;;24.67;13.83;;;;;;;2.15;68.04;101154.97;4994706;28;20980;-77
2022/01/17 04:42:12;;;;;;;25.30;14.27;;;;;;;2.04;68.00;101153.59;4994721;28;20201;-78
2022/01/17 04:47:29;;;;;;;30.13;14.93;;;;;;;1.85;69.02;101152.78;4981340;28;20191;-78
2022/01/17 04:49:54;;;;;;;29.90;14.13;;;;;;;1.79;69.10;101154.50;5000436;28;20188;-78
2022/01/17 04:52:20;;;;;;;28.83;14.97;;;;;;;1.52;69.40;101114.72;4997756;28;20177;-76
2022/01/17 04:54:52;;;;;;;32.60;16.23;;;;;;;1.71;69.31;101143.34;4996309;28;20185;-77
2022/01/17 04:57:18;;;;;;;24.97;14.00;;;;;;;1.71;69.45;101139.91;4979130;28;20174;-79
2022/01/17 04:59:43;;;;;;;26.03;14.13;;;;;;;1.69;69.38;101136.28;4995477;28;20180;-77
2022/01/17 05:02:09;;;;;;;23.33;12.27;;;;;;;1.65;69.28;101123.94;4995122;28;20205;-76
2022/01/17 05:04:35;;;;;;;25.30;13.13;;;;;;;1.72;69.00;101141.75;4995757;28;20664;-75
2022/01/17 05:07:01;;;;;;;25.37;12.83;;;;;;;1.74;68.99;101136.16;4995587;28;20185;-76
2022/01/17 05:09:27;;;;;;;26.57;13.40;;;;;;;1.83;68.64;101131.44;4977232;28;20197;-75
2022/01/17 05:11:52;;;;;;;26.27;14.53;;;;;;;1.82;68.55;101139.72;4993714;28;20859;-77
2022/01/17 05:14:18;;;;;;;31.03;15.20;;;;;;;1.93;68.53;101131.97;4994043;28;20236;-77
2022/01/17 05:16:49;;;;;;;37.07;17.53;;;;;;;2.03;67.83;101112.25;4993913;28;20559;-78
2022/01/17 05:21:58;;;;;;;36.67;19.07;;;;;;;2.62;69.41;101112.22;4994032;28;20715;-75
2022/01/17 05:24:24;;;;;;;32.17;17.67;;;;;;;2.58;66.51;101089.75;4994180;28;20205;-77
2022/01/17 05:26:49;;;;;;;33.53;18.50;;;;;;;2.54;65.60;101112.13;4994479;28;20177;-77
2022/01/17 05:29:15;;;;;;;39.53;19.67;;;;;;;2.37;65.40;101076.19;4994330;28;20276;-77
2022/01/17 05:31:41;;;;;;;31.37;17.87;;;;;;;2.23;65.66;101054.16;4999032;28;20188;-78
2022/01/17 05:34:06;;;;;;;38.83;19.33;;;;;;;2.47;67.93;101085.84;4995391;28;20244;-77
2022/01/17 05:36:32;;;;;;;29.33;17.03;;;;;;;2.15;67.27;101051.31;5010068;28;20173;-78
2022/01/17 05:38:57;;;;;;;25.70;15.87;;;;;;;2.12;68.90;101076.22;5016574;28;20181;-76
2022/01/17 05:41:23;;;;;;;29.67;14.60;;;;;;;2.04;68.21;101083.72;5015160;28;20170;-77
2022/01/17 05:43:48;;;;;;;22.90;13.53;;;;;;;2.03;68.82;101088.59;5015351;28;20201;-76
2022/01/17 05:46:14;;;;;;;22.47;12.30;;;;;;;1.93;68.90;101078.91;5014335;28;20193;-77
2022/01/17 05:48:40;;;;;;;25.87;14.67;;;;;;;1.96;69.28;101075.81;5015832;28;20226;-77
2022/01/17 05:51:05;;;;;;;24.67;13.13;;;;;;;1.65;68.63;101028.84;5015638;28;20161;-77
2022/01/17 05:53:31;;;;;;;23.90;13.67;;;;;;;2.01;69.83;101077.34;4995316;28;20181;-76
2022/01/17 05:55:57;;;;;;;27.93;14.20;;;;;;;2.09;69.54;101064.09;4993880;28;20173;-76
2022/01/17 05:58:22;;;;;;;23.60;13.80;;;;;;;2.20;68.18;101075.59;5010223;28;20177;-75
2022/01/17 06:00:48;;;;;;;20.97;12.87;;;;;;;2.37;68.05;101081.25;4991142;28;20181;-74
2022/01/17 06:03:14;;;;;;;31.63;14.73;;;;;;;2.42;67.02;101071.69;5004963;28;20215;-76
2022/01/17 06:05:39;;;;;;;25.63;13.10;;;;;;;2.60;66.11;101089.25;4997358;28;20185;-74
2022/01/17 06:08:07;;;;;;;24.20;12.97;;;;;;;2.58;64.88;101080.53;4978065;28;20324;-75
2022/01/17 06:10:33;;;;;;;22.50;11.03;;;;;;;2.67;64.15;101101.06;4977342;28;20488;-77
2022/01/17 06:12:59;;;;;;;21.43;11.17;;;;;;;2.69;63.64;101100.56;4993313;28;20232;-75
2022/01/17 06:15:25;;;;;;;20.73;10.97;;;;;;;2.82;62.93;101084.41;4993012;28;20189;-76
2022/01/17 06:17:50;;;;;;;17.50;9.93;;;;;;;2.82;63.07;101092.91;4993731;28;20324;-74
2022/01/17 06:20:16;;;;;;;17.37;9.97;;;;;;;3.00;61.75;101081.69;4996268;28;20660;-77
2022/01/17 06:22:41;;;;;;;18.27;10.57;;;;;;;3.01;60.95;101092.00;4998257;28;20205;-76
2022/01/17 06:25:07;;;;;;;18.57;10.57;;;;;;;3.17;60.10;101093.94;4998644;28;20191;-77
2022/01/17 06:27:33;;;;;;;18.00;10.53;;;;;;;3.06;60.27;101077.41;5000043;28;20177;-77
2022/01/17 06:29:59;;;;;;;22.47;10.83;;;;;;;3.12;60.39;101092.47;4998190;28;20169;-74
2022/01/17 06:32:26;;;;;;;18.13;10.60;;;;;;;3.21;59.18;101075.91;4998360;28;20181;-74
2022/01/17 06:34:52;;;;;;;21.03;11.03;;;;;;;3.20;58.48;101046.22;4999213;28;20185;-77
2022/01/17 06:37:17;;;;;;;18.10;9.97;;;;;;;3.44;58.11;101082.22;4999737;28;20528;-74
2022/01/17 06:39:43;;;;;;;22.27;9.97;;;;;;;3.04;57.46;100995.28;4999191;28;20177;-76
2022/01/17 06:42:08;;;;;;;16.57;9.13;;;;;;;3.66;57.05;101063.00;4998481;28;20714;-76
2022/01/17 06:44:34;;;;;;;17.67;9.50;;;;;;;3.80;57.07;101081.53;4997464;28;20656;-77
2022/01/17 06:47:00;;;;;;;18.77;10.33;;;;;;;3.89;56.46;101068.41;4994852;28;20177;-78
2022/01/17 06:49:25;;;;;;;16.83;10.03;;;;;;;4.04;55.76;101071.88;4994157;28;20239;-76
2022/01/17 06:51:51;;;;;;;26.30;12.07;;;;;;;4.15;55.30;101081.72;4993473;28;20189;-76
2022/01/17 06:54:17;;;;;;;18.63;9.57;;;;;;;4.16;55.40;101075.03;4992812;28;20224;-74
2022/01/17 06:56:44;;;;;;;23.97;11.57;;;;;;;4.14;56.08;101039.34;4977072;28;20177;-77
2022/01/17 06:59:13;;;;;;;21.90;12.07;;;;;;;4.25;55.26;101043.16;4994722;28;20208;-76
2022/01/17 07:01:39;;;;;;;18.27;10.23;;;;;;;4.06;54.43;100993.47;4993394;28;20178;-78
2022/01/17 07:04:05;;;;;;;14.47;8.67;;;;;;;4.46;53.82;101072.78;4992559;28;20251;-76
2022/01/17 07:06:31;;;;;;;17.00;9.73;;;;;;;4.65;53.13;101070.84;4992252;28;20169;-75
2022/01/17 07:08:56;;;;;;;20.37;9.80;;;;;;;4.61;54.02;101058.47;4992100;28;20184;-77
2022/01/17 07:11:22;;;;;;;22.40;9.47;;;;;;;4.71;52.61;101061.41;4992075;28;20177;-78
2022/01/17 07:13:47;;;;;;;15.33;9.10;;;;;;;4.64;52.64;101043.59;4992721;28;20176;-76
2022/01/17 07:16:13;;;;;;;16.73;9.10;;;;;;;4.55;52.42;101012.09;4974269;28;20676;-76
2022/01/17 07:18:39;;;;;;;19.07;9.23;;;;;;;4.75;53.06;101048.34;4994700;28;20178;-75
2022/01/17 07:21:04;;;;;;;19.17;9.57;;;;;;;4.98;51.45;101042.56;4996132;28;20188;-76
2022/01/17 07:23:30;;;;;;;14.77;9.23;;;;;;;5.00;52.19;101058.91;4978481;28;20687;-76
2022/01/17 07:25:56;;;;;;;20.33;10.50;;;;;;;4.94;52.41;101060.72;4997408;28;20268;-77
2022/01/17 07:28:21;;;;;;;16.27;9.97;;;;;;;4.99;52.46;101046.94;5000204;28;20182;-78
2022/01/17 07:30:47;;;;;;;19.10;10.00;;;;;;;4.58;53.49;101005.75;4998429;28;20265;-76
2022/01/17 07:33:13;;;;;;;22.87;10.80;;;;;;;5.07;53.82;101048.72;4997186;28;20170;-76
2022/01/17 07:35:38;;;;;;;23.23;10.47;;;;;;;5.10;53.77;101024.59;4996521;28;20192;-77
2022/01/17 07:38:05;;;;;;;24.47;9.90;;;;;;;4.94;53.67;101015.91;4995988;28;20623;-76
2022/01/17 07:40:31;;;;;;;22.70;11.20;;;;;;;4.73;54.30;100988.88;4996716;28;20584;-77
2022/01/17 07:42:57;;;;;;;18.97;10.00;;;;;;;4.78;54.58;101017.34;4995569;28;20207;-76
2022/01/17 07:45:22;;;;;;;35.63;10.10;;;;;;;4.84;54.57;101034.22;4995770;28;20173;-77
2022/01/17 07:50:19;;;;;;;23.60;10.13;;;;;;;4.77;56.20;101081.56;4996810;28;20185;-77
2022/01/17 07:52:45;;;;;;;18.13;10.37;;;;;;;4.77;56.28;101105.31;4996379;28;20182;-77
2022/01/17 07:55:11;;;;;;;26.43;10.20;;;;;;;4.65;56.87;101086.06;4980374;28;20192;-77
2022/01/17 07:57:38;;;;;;;17.47;10.73;;;;;;;4.68;57.00;101075.38;4997991;28;20260;-77
2022/01/17 08:00:10;;;;;;;19.33;10.97;;;;;;;4.51;57.30;101017.50;4997981;28;20668;-77
2022/01/17 08:02:36;;;;;;;21.93;11.00;;;;;;;4.87;57.42;101038.75;4998835;28;20300;-76
2022/01/17 08:05:03;;;;;;;22.63;10.70;;;;;;;4.89;57.97;101008.47;4999417;28;20211;-78
2022/01/17 08:07:29;;;;;;;24.33;11.57;;;;;;;4.84;58.87;100991.06;4999741;28;20185;-77
2022/01/17 08:09:54;;;;;;;21.70;11.63;;;;;;;4.92;59.40;101018.97;4982075;28;20217;-80
2022/01/17 08:12:21;;;;;;;22.20;11.23;;;;;;;4.94;59.92;101048.91;4999925;28;20229;-78
2022/01/17 08:14:46;;;;;;;23.13;12.13;;;;;;;4.76;61.11;101060.31;5007632;28;20177;-75
2022/01/17 08:17:12;;;;;;;23.23;12.77;;;;;;;4.99;62.05;101134.19;5007024;28;20247;-74
2022/01/17 08:19:38;;;;;;;26.80;12.77;;;;;;;5.00;61.99;101156.31;5008221;28;20232;-74
2022/01/17 08:22:05;;;;;;;24.57;13.80;;;;;;;5.08;62.65;101186.09;5005936;28;20194;-75
2022/01/17 08:24:33;;;;;;;24.00;14.07;;;;;;;5.08;62.83;101186.09;4988432;28;20608;-75
2022/01/17 08:26:59;;;;;;;30.33;13.90;;;;;;;5.16;63.48;101142.91;5005819;28;20565;-77
2022/01/17 08:29:28;;;;;;;29.80;15.03;;;;;;;5.11;63.64;101104.28;5005303;28;20192;-75
2022/01/17 08:31:59;;;;;;;24.37;14.50;;;;;;;5.36;63.88;101140.19;4987267;28;20776;-74
2022/01/17 08:34:25;;;;;;;28.27;14.20;;;;;;;5.38;64.17;101106.63;5004855;28;20169;-76
2022/01/17 08:36:50;;;;;;;29.63;14.17;;;;;;;5.42;64.15;101093.56;5002518;28;20200;-78
2022/01/17 08:39:17;;;;;;;26.53;14.70;;;;;;;5.50;64.02;101086.84;5000127;28;20189;-78
2022/01/17 08:41:42;;;;;;;27.30;14.93;;;;;;;5.63;64.09;101026.50;4999885;28;20173;-77
2022/01/17 08:44:16;;;;;;;24.85;13.23;;;;;;;5.72;63.95;101045.38;4998694;28;20180;-79
2022/01/17 08:46:42;;;;;;;28.40;15.30;;;;;;;5.76;64.10;101057.75;4997678;28;20236;-75
2022/01/17 08:49:08;;;;;;;23.23;13.07;;;;;;;5.23;63.30;100958.38;4998543;28;20180;-77
2022/01/17 08:51:34;;;;;;;25.37;14.97;;;;;;;5.84;64.00;101066.25;4997966;28;20550;-76
2022/01/17 08:53:59;;;;;;;30.10;15.63;;;;;;;5.65;64.05;100999.66;5002471;28;20185;-75
2022/01/17 08:56:27;;;;;;;26.13;15.27;;;;;;;6.19;63.31;101054.16;5004253;28;20183;-76
2022/01/17 08:58:53;;;;;;;29.50;16.53;;;;;;;5.99;63.34;100996.81;5002982;28;20708;-75
2022/01/17 09:01:19;;;;;;;29.87;15.40;;;;;;;6.24;62.82;101013.22;5005123;28;20188;-77
2022/01/17 09:03:45;;;;;;;38.85;18.65;;;;;;;6.23;63.10;101011.44;5006756;28;20708;-76
2022/01/17 09:06:10;;;;;;;32.65;16.77;;;;;;;6.49;63.11;101033.81;5006264;28;20253;-77
2022/01/17 09:08:35;;;;;;;27.73;14.55;;;;;;;6.38;63.17;101012.22;5003992;28;20211;-78
2022/01/17 09:11:01;;;;;;;35.78;16.50;;;;;;;6.33;63.34;100954.84;5005333;28;20735;-77
2022/01/17 09:13:28;;;;;;;29.95;15.82;;;;;;;6.52;63.12;100962.00;5004004;28;20233;-75
2022/01/17 09:15:53;;;;;;;34.88;17.50;;;;;;;6.52;63.23;100954.34;5001643;28;20190;-78
2022/01/17 09:18:22;;;;;;;27.67;15.35;;;;;;;6.58;62.50;100960.13;5002017;28;20283;-76
2022/01/17 09:20:48;;;;;;;31.08;15.60;;;;;;;6.56;62.98;100942.13;4983677;28;20554;-76
2022/01/17 09:23:14;;;;;;;27.73;14.90;;;;;;;6.69;62.44;100931.63;4999181;28;20212;-75
2022/01/17 09:25:40;;;;;;;36.05;14.50;;;;;;;6.74;61.67;100901.59;4994988;28;20173;-77
2022/01/17 09:28:06;;;;;;;27.27;15.00;;;;;;;6.91;61.30;100925.59;4995086;28;20181;-78
2022/01/17 09:30:32;;;;;;;27.50;15.02;;;;;;;7.24;60.90;100918.94;4994874;28;20566;-77
2022/01/17 09:32:58;;;;;;;28.17;15.00;;;;;;;7.23;60.46;100934.94;4994734;28;20645;-76
2022/01/17 09:35:24;;;;;;;33.63;14.27;;;;;;;7.28;59.85;100959.28;4994609;28;20216;-79
2022/01/17 09:37:50;;;;;;;23.92;13.85;;;;;;;7.26;60.08;100953.13;4994762;28;20676;-79
2022/01/17 09:40:19;;;;;;;28.35;15.45;;;;;;;7.13;60.53;100963.63;4994242;28;20213;-77
2022/01/17 09:42:45;;;;;;;27.15;14.27;;;;;;;7.23;60.90;100976.66;4993188;28;20197;-77
2022/01/17 09:45:14;;;;;;;33.72;15.52;;;;;;;7.36;60.16;100959.41;4993785;28;20173;-75
2022/01/17 09:47:41;;;;;;;27.48;15.85;;;;;;;7.47;59.68;100957.09;4994185;28;20677;-77
2022/01/17 09:50:17;;;;;;;33.83;16.25;;;;;;;7.39;59.72;100890.00;4994251;28;20173;-79
2022/01/17 09:52:51;;;;;;;23.38;14.25;;;;;;;7.24;58.98;100829.72;4976397;28;20721;-76
2022/01/17 09:55:21;;;;;;;32.10;12.52;;;;;;;7.99;57.64;100945.69;4994363;28;20200;-74
2022/01/17 09:57:53;;;;;;;21.30;12.82;;;;;;;8.11;58.02;100971.59;4995405;28;20264;-79
2022/01/17 10:00:26;;;;;;;24.42;12.07;;;;;;;7.99;57.10;100932.94;4994133;28;20197;-79
2022/01/17 10:02:55;;;;;;;20.23;11.48;;;;;;;7.81;56.65;100855.34;4994536;28;20193;-80
2022/01/17 10:05:21;;;;;;;26.15;11.00;;;;;;;8.21;56.36;100953.94;4994892;28;20252;-80
2022/01/17 10:08:04;;;;;;;25.38;14.13;;;;;;;8.60;56.59;100948.66;4994936;28;20169;-78
2022/01/17 10:11:02;;;;;;;24.52;11.93;;;;;;;8.69;54.91;100933.34;4994498;28;20743;-79
2022/01/17 10:13:34;;;;;;;19.30;10.98;;;;;;;8.90;54.65;100952.53;4988288;28;20225;-81
2022/01/17 10:16:02;;;;;;;19.38;10.70;;;;;;;8.92;54.74;100940.81;4993077;28;20177;-78
2022/01/17 10:18:34;;;;;;;22.80;11.60;;;;;;;8.86;54.99;100933.44;4975890;28;20571;-77
2022/01/17 10:21:12;;;;;;;26.88;11.77;;;;;;;8.94;54.63;100921.41;4975888;28;20182;-80
2022/01/17 10:37:22;;;;;;;19.98;11.70;;;;;;;9.40;54.17;100896.25;4993017;28;20301;-78
2022/01/17 10:40:15;;;;;;;23.58;13.30;;;;;;;9.54;53.30;100902.75;4992542;28;20256;-77
2022/01/17 10:42:47;;;;;;;21.23;12.45;;;;;;;9.77;53.00;100920.34;4992757;28;20285;-78
2022/01/17 10:45:20;;;;;;;23.02;13.05;;;;;;;9.83;52.87;100917.50;4993031;28;20655;-77
2022/01/17 10:47:47;;;;;;;29.35;17.10;;;;;;;9.58;53.29;100911.63;4993017;28;20207;-77
2022/01/17 10:50:19;;;;;;;35.03;16.10;;;;;;;9.31;53.48;100862.09;4992096;28;20178;-78
2022/01/17 10:52:48;;;;;;;28.27;15.38;;;;;;;9.49;53.65;100863.91;4992435;28;20197;-78
2022/01/17 10:55:24;;;;;;;29.77;12.63;;;;;;;9.81;53.16;100902.00;4992223;28;20780;-79
2022/01/17 10:58:16;;;;;;;19.42;11.45;;;;;;;9.67;52.72;100921.09;4992298;28;20267;-77
2022/01/17 11:00:45;;;;;;;18.70;12.38;;;;;;;9.52;52.46;100890.56;4992496;28;20170;-78
2022/01/17 11:03:17;;;;;;;28.30;13.05;;;;;;;9.64;52.46;100890.09;4974885;28;20224;-77
2022/01/17 11:05:45;;;;;;;22.90;12.73;;;;;;;9.88;52.28;100891.59;4992407;28;20313;-79
2022/01/17 11:08:12;;;;;;;24.15;12.70;;;;;;;9.92;51.43;100880.00;4991993;28;20177;-78
2022/01/17 11:10:43;;;;;;;20.65;12.27;;;;;;;10.02;51.40;100877.56;4975220;28;20198;-77
2022/01/17 11:13:16;;;;;;;19.35;11.05;;;;;;;10.16;51.49;100863.53;4992075;28;20228;-79
2022/01/17 11:15:45;;;;;;;19.55;13.18;;;;;;;10.36;50.52;100853.53;4992328;28;20290;-76
2022/01/17 11:18:22;;;;;;;21.02;11.52;;;;;;;10.67;50.93;100861.56;4992122;28;20616;-77
2022/01/17 11:20:50;;;;;;;20.00;11.77;;;;;;;10.94;49.10;100854.63;4991954;28;20260;-79
2022/01/17 11:23:18;;;;;;;17.50;10.88;;;;;;;11.15;48.37;100858.25;4991971;28;20208;-78
2022/01/17 11:25:48;;;;;;;31.55;11.52;;;;;;;10.55;48.29;100746.00;4974872;28;20208;-78
2022/01/17 11:28:15;;;;;;;26.65;12.40;;;;;;;10.70;49.20;100787.53;4992143;28;20166;-81
2022/01/17 11:30:41;;;;;;;23.10;12.18;;;;;;;10.98;48.91;100834.53;4991653;28;20712;-79
2022/01/17 11:33:09;;;;;;;19.45;12.57;;;;;;;10.79;48.93;100816.56;4992068;28;20177;-77
2022/01/17 11:35:37;;;;;;;19.98;12.25;;;;;;;10.79;48.73;100831.94;4992047;28;20207;-79
2022/01/17 11:38:04;;;;;;;22.00;13.27;;;;;;;10.68;49.27;100844.50;4992364;28;20185;-80
2022/01/17 11:40:36;;;;;;;21.15;13.38;;;;;;;10.55;50.15;100845.03;4993407;28;20192;-80
2022/01/17 11:43:17;;;;;;;18.73;11.88;;;;;;;10.65;50.11;100847.69;4994673;28;20288;-79
2022/01/17 11:45:43;;;;;;;22.20;12.60;;;;;;;10.80;50.15;100845.66;4994524;28;20186;-79
2022/01/17 11:48:18;;;;;;;21.02;13.30;;;;;;;10.89;49.19;100831.13;4992669;28;20184;-79
2022/01/17 11:50:47;;;;;;;27.25;13.48;;;;;;;10.97;49.51;100860.06;4992999;28;20200;-80